Time,TemperatureF,DewpointF,PressureIn,WindDirection,WindDirectionDegrees,WindSpeedMPH,WindSpeedGustMPH,Humidity,HourlyPrecipIn,Conditions,Clouds,dailyrainin,SolarRadiationWatts/m^2,SoftwareType,DateUTC
2013-02-20 01:00:00,46.8,44.9,30.10,West,264,0.0,23.0,93,0.00,,,0.00,0,Wunderground v.1.15,2013-02-20 06:00:00,
2013-02-20 02:00:00,46.2,44.6,30.10,WSW,258,0.0,23.0,94,0.00,,,0.00,0,Wunderground v.1.15,2013-02-20 07:00:00,
2013-02-20 03:00:00,47.0,45.6,30.08,WSW,258,0.0,23.0,95,0.00,,,0.00,0,Wunderground v.1.15,2013-02-20 08:00:00,
2013-02-20 04:00:00,46.9,45.5,30.08,WSW,258,0.0,23.0,95,0.00,,,0.00,0,Wunderground v.1.15,2013-02-20 09:00:00,
2013-02-20 05:00:00,56.5,55.9,30.08,NNW,342,3.0,23.0,98,0.00,,,0.00,0,Wunderground v.1.15,2013-02-20 10:00:00,
2013-02-20 06:00:00,59.4,58.8,30.09,WNW,296,3.0,23.0,98,0.00,,,0.00,0,Wunderground v.1.15,2013-02-20 11:00:00,
2013-02-20 07:00:00,55.4,54.3,30.12,WNW,293,0.0,23.0,96,0.00,,,0.00,0,Wunderground v.1.15,2013-02-20 12:00:00,
2013-02-20 08:00:00,59.4,58.8,30.13,NNE,19,3.0,23.0,98,0.00,,,0.00,86,Wunderground v.1.15,2013-02-20 13:00:00,
2013-02-20 09:00:00,61.6,58.9,30.15,NNE,29,5.0,23.0,91,0.00,,,0.00,155,Wunderground v.1.15,2013-02-20 14:00:00,
2013-02-20 10:00:00,64.7,60.1,30.15,ENE,65,4.0,23.0,85,0.00,,,0.00,429,Wunderground v.1.15,2013-02-20 15:00:00,
2013-02-20 11:00:00,69.4,60.8,30.15,East,89,4.0,23.0,74,0.00,,,0.00,965,Wunderground v.1.15,2013-02-20 16:00:00,
2013-02-20 12:00:00,72.0,60.4,30.11,East,92,5.0,23.0,67,0.00,,,0.00,828,Wunderground v.1.15,2013-02-20 17:00:00,
2013-02-20 13:00:00,75.0,61.1,30.08,South,173,2.0,23.0,62,0.00,,,0.00,763,Wunderground v.1.15,2013-02-20 18:00:00,
2013-02-20 14:00:00,76.8,60.9,30.04,East,90,4.0,23.0,58,0.00,,,0.00,912,Wunderground v.1.15,2013-02-20 19:00:00,
2013-02-20 15:00:00,76.0,59.7,30.04,West,274,1.0,23.0,57,0.00,,,0.00,313,Wunderground v.1.15,2013-02-20 20:00:00,
2013-02-20 16:00:00,76.1,60.2,30.02,WSW,246,1.0,23.0,58,0.00,,,0.00,195,Wunderground v.1.15,2013-02-20 21:00:00,
2013-02-20 17:00:00,74.5,59.7,30.04,East,80,1.0,23.0,60,0.00,,,0.00,49,Wunderground v.1.15,2013-02-20 22:00:00,
2013-02-20 18:00:00,72.3,62.4,30.06,NNE,19,1.0,23.0,71,0.00,,,0.00,11,Wunderground v.1.15,2013-02-20 23:00:00,
2013-02-20 19:00:00,66.7,58.9,30.07,ENE,78,5.0,23.0,76,0.00,,,0.00,0,Wunderground v.1.15,2013-02-21 00:00:00,
2013-02-20 20:00:00,64.0,58.1,30.09,NE,48,2.0,23.0,81,0.00,,,0.00,0,Wunderground v.1.15,2013-02-21 01:00:00,
2013-02-20 21:00:00,61.1,54.9,30.11,NNE,32,3.0,23.0,80,0.00,,,0.00,0,Wunderground v.1.15,2013-02-21 02:00:00,
2013-02-20 22:00:00,60.6,54.4,30.12,NE,46,4.0,23.0,80,0.00,,,0.00,0,Wunderground v.1.15,2013-02-21 03:00:00,
2013-02-20 23:00:00,60.2,54.3,30.11,ENE,65,4.0,23.0,81,0.00,,,0.00,0,Wunderground v.1.15,2013-02-21 04:00:00,